sensor_id;sensor_type;location;lat;lon;timestamp;P1;durP1;ratioP1;P2;durP2;ratioP2
60006;SDS011;45863;50.336;3.536;2022-07-23T00:00:14;32.70;;;23.05;;
60006;SDS011;45863;50.336;3.536;2022-07-23T00:02:39;37.42;;;27.27;;
60006;SDS011;45863;50.336;3.536;2022-07-23T00:05:04;43.27;;;30.07;;
60006;SDS011;45863;50.336;3.536;2022-07-23T00:07:30;32.13;;;25.30;;
60006;SDS011;45863;50.336;3.536;2022-07-23T00:09:55;35.73;;;23.97;;
60006;SDS011;45863;50.336;3.536;2022-07-23T00:12:20;32.37;;;25.77;;
60006;SDS011;45863;50.336;3.536;2022-07-23T00:14:45;39.78;;;25.48;;
60006;SDS011;45863;50.336;3.536;2022-07-23T00:17:10;35.05;;;26.63;;
60006;SDS011;45863;50.336;3.536;2022-07-23T00:19:36;37.07;;;28.23;;
60006;SDS011;45863;50.336;3.536;2022-07-23T00:22:01;38.25;;;28.27;;
60006;SDS011;45863;50.336;3.536;2022-07-23T00:24:26;38.10;;;28.95;;
60006;SDS011;45863;50.336;3.536;2022-07-23T00:26:51;40.50;;;29.92;;
60006;SDS011;45863;50.336;3.536;2022-07-23T00:29:17;36.35;;;27.15;;
60006;SDS011;45863;50.336;3.536;2022-07-23T00:31:42;35.33;;;28.23;;
60006;SDS011;45863;50.336;3.536;2022-07-23T00:34:07;34.90;;;27.48;;
60006;SDS011;45863;50.336;3.536;2022-07-23T00:36:32;35.37;;;27.20;;
60006;SDS011;45863;50.336;3.536;2022-07-23T00:38:57;35.63;;;27.63;;
60006;SDS011;45863;50.336;3.536;2022-07-23T00:41:23;34.00;;;26.63;;
60006;SDS011;45863;50.336;3.536;2022-07-23T00:43:48;35.33;;;26.98;;
60006;SDS011;45863;50.336;3.536;2022-07-23T00:46:18;33.63;;;26.30;;
60006;SDS011;45863;50.336;3.536;2022-07-23T00:48:43;37.97;;;26.90;;
60006;SDS011;45863;50.336;3.536;2022-07-23T00:51:08;35.37;;;27.77;;
60006;SDS011;45863;50.336;3.536;2022-07-23T00:53:33;33.87;;;26.23;;
60006;SDS011;45863;50.336;3.536;2022-07-23T00:55:59;34.78;;;27.45;;
60006;SDS011;45863;50.336;3.536;2022-07-23T00:58:24;33.17;;;26.37;;
60006;SDS011;45863;50.336;3.536;2022-07-23T01:00:50;37.47;;;27.53;;
60006;SDS011;45863;50.336;3.536;2022-07-23T01:03:15;36.90;;;27.25;;
60006;SDS011;45863;50.336;3.536;2022-07-23T01:05:40;45.73;;;28.00;;
60006;SDS011;45863;50.336;3.536;2022-07-23T01:08:05;36.57;;;27.73;;
60006;SDS011;45863;50.336;3.536;2022-07-23T01:10:31;37.65;;;27.75;;
60006;SDS011;45863;50.336;3.536;2022-07-23T01:12:56;37.87;;;27.20;;
60006;SDS011;45863;50.336;3.536;2022-07-23T01:15:22;37.13;;;27.50;;
60006;SDS011;45863;50.336;3.536;2022-07-23T01:17:47;37.38;;;28.33;;
60006;SDS011;45863;50.336;3.536;2022-07-23T01:20:13;36.10;;;28.02;;
60006;SDS011;45863;50.336;3.536;2022-07-23T01:22:38;37.45;;;28.13;;
60006;SDS011;45863;50.336;3.536;2022-07-23T01:25:03;37.17;;;28.43;;
60006;SDS011;45863;50.336;3.536;2022-07-23T01:27:28;38.25;;;28.40;;
60006;SDS011;45863;50.336;3.536;2022-07-23T01:29:54;41.27;;;29.87;;
60006;SDS011;45863;50.336;3.536;2022-07-23T01:32:20;38.33;;;28.73;;
60006;SDS011;45863;50.336;3.536;2022-07-23T01:34:45;44.77;;;30.33;;
60006;SDS011;45863;50.336;3.536;2022-07-23T01:37:10;44.25;;;29.55;;
60006;SDS011;45863;50.336;3.536;2022-07-23T01:39:35;43.42;;;31.45;;
60006;SDS011;45863;50.336;3.536;2022-07-23T01:42:01;50.60;;;31.10;;
60006;SDS011;45863;50.336;3.536;2022-07-23T01:44:26;39.70;;;29.40;;
60006;SDS011;45863;50.336;3.536;2022-07-23T01:46:51;40.70;;;29.87;;
60006;SDS011;45863;50.336;3.536;2022-07-23T01:49:16;38.03;;;30.27;;
60006;SDS011;45863;50.336;3.536;2022-07-23T01:51:41;41.78;;;29.55;;
60006;SDS011;45863;50.336;3.536;2022-07-23T01:54:24;38.92;;;29.20;;
60006;SDS011;45863;50.336;3.536;2022-07-23T01:56:49;37.55;;;28.88;;
60006;SDS011;45863;50.336;3.536;2022-07-23T01:59:15;36.00;;;27.77;;
60006;SDS011;45863;50.336;3.536;2022-07-23T02:01:40;44.30;;;30.35;;
60006;SDS011;45863;50.336;3.536;2022-07-23T02:04:05;43.20;;;29.57;;
60006;SDS011;45863;50.336;3.536;2022-07-23T02:06:30;50.13;;;28.40;;
60006;SDS011;45863;50.336;3.536;2022-07-23T02:08:55;50.43;;;30.50;;
60006;SDS011;45863;50.336;3.536;2022-07-23T02:11:21;50.00;;;28.90;;
60006;SDS011;45863;50.336;3.536;2022-07-23T02:13:46;49.50;;;29.93;;
60006;SDS011;45863;50.336;3.536;2022-07-23T02:16:11;54.33;;;28.53;;
60006;SDS011;45863;50.336;3.536;2022-07-23T02:18:36;48.93;;;30.60;;
60006;SDS011;45863;50.336;3.536;2022-07-23T02:21:01;44.60;;;29.47;;
60006;SDS011;45863;50.336;3.536;2022-07-23T02:23:26;45.37;;;29.57;;
60006;SDS011;45863;50.336;3.536;2022-07-23T02:25:52;47.33;;;28.50;;
60006;SDS011;45863;50.336;3.536;2022-07-23T02:28:17;49.70;;;28.93;;
60006;SDS011;45863;50.336;3.536;2022-07-23T02:30:42;48.57;;;30.17;;
60006;SDS011;45863;50.336;3.536;2022-07-23T02:33:07;42.17;;;30.83;;
60006;SDS011;45863;50.336;3.536;2022-07-23T02:35:32;46.92;;;32.20;;
60006;SDS011;45863;50.336;3.536;2022-07-23T02:37:58;45.63;;;30.20;;
60006;SDS011;45863;50.336;3.536;2022-07-23T02:40:23;49.20;;;31.27;;
60006;SDS011;45863;50.336;3.536;2022-07-23T02:42:48;39.27;;;30.67;;
60006;SDS011;45863;50.336;3.536;2022-07-23T02:45:13;41.73;;;31.07;;
60006;SDS011;45863;50.336;3.536;2022-07-23T02:47:38;45.42;;;30.75;;
60006;SDS011;45863;50.336;3.536;2022-07-23T02:50:04;44.10;;;29.63;;
60006;SDS011;45863;50.336;3.536;2022-07-23T02:52:30;46.67;;;30.27;;
60006;SDS011;45863;50.336;3.536;2022-07-23T02:54:55;47.30;;;28.73;;
60006;SDS011;45863;50.336;3.536;2022-07-23T02:57:20;44.63;;;31.90;;
60006;SDS011;45863;50.336;3.536;2022-07-23T02:59:45;38.57;;;30.53;;
60006;SDS011;45863;50.336;3.536;2022-07-23T03:02:11;39.60;;;29.00;;
60006;SDS011;45863;50.336;3.536;2022-07-23T03:04:36;39.43;;;28.60;;
60006;SDS011;45863;50.336;3.536;2022-07-23T03:07:01;39.37;;;28.53;;
60006;SDS011;45863;50.336;3.536;2022-07-23T03:09:26;41.00;;;27.70;;
60006;SDS011;45863;50.336;3.536;2022-07-23T03:11:51;40.92;;;29.10;;
60006;SDS011;45863;50.336;3.536;2022-07-23T03:14:17;47.43;;;25.43;;
60006;SDS011;45863;50.336;3.536;2022-07-23T03:16:42;42.15;;;24.67;;
60006;SDS011;45863;50.336;3.536;2022-07-23T03:19:07;49.58;;;23.98;;
60006;SDS011;45863;50.336;3.536;2022-07-23T03:21:33;48.22;;;26.15;;
60006;SDS011;45863;50.336;3.536;2022-07-23T03:23:59;42.55;;;29.95;;
60006;SDS011;45863;50.336;3.536;2022-07-23T03:26:24;38.35;;;28.50;;
60006;SDS011;45863;50.336;3.536;2022-07-23T03:28:50;42.83;;;27.88;;
60006;SDS011;45863;50.336;3.536;2022-07-23T03:31:15;38.88;;;27.75;;
60006;SDS011;45863;50.336;3.536;2022-07-23T03:33:40;41.00;;;28.47;;
60006;SDS011;45863;50.336;3.536;2022-07-23T03:36:06;40.50;;;29.08;;
60006;SDS011;45863;50.336;3.536;2022-07-23T03:38:31;43.42;;;29.40;;
60006;SDS011;45863;50.336;3.536;2022-07-23T03:40:57;36.13;;;27.40;;
60006;SDS011;45863;50.336;3.536;2022-07-23T03:43:22;42.30;;;29.37;;
60006;SDS011;45863;50.336;3.536;2022-07-23T03:45:49;43.28;;;30.10;;
60006;SDS011;45863;50.336;3.536;2022-07-23T03:48:14;45.22;;;30.83;;
60006;SDS011;45863;50.336;3.536;2022-07-23T03:50:39;44.53;;;28.15;;
60006;SDS011;45863;50.336;3.536;2022-07-23T03:53:05;47.70;;;29.13;;
60006;SDS011;45863;50.336;3.536;2022-07-23T03:55:30;43.58;;;31.17;;
60006;SDS011;45863;50.336;3.536;2022-07-23T03:57:55;43.67;;;30.77;;
60006;SDS011;45863;50.336;3.536;2022-07-23T04:00:20;49.53;;;31.07;;
60006;SDS011;45863;50.336;3.536;2022-07-23T04:02:45;42.30;;;29.23;;
60006;SDS011;45863;50.336;3.536;2022-07-23T04:05:10;41.80;;;28.90;;
60006;SDS011;45863;50.336;3.536;2022-07-23T04:07:36;44.57;;;28.00;;
60006;SDS011;45863;50.336;3.536;2022-07-23T04:10:01;44.50;;;28.20;;
60006;SDS011;45863;50.336;3.536;2022-07-23T04:12:26;37.92;;;26.70;;
60006;SDS011;45863;50.336;3.536;2022-07-23T04:14:52;35.93;;;26.40;;
60006;SDS011;45863;50.336;3.536;2022-07-23T04:17:17;38.65;;;25.73;;
60006;SDS011;45863;50.336;3.536;2022-07-23T04:19:42;37.90;;;26.30;;
60006;SDS011;45863;50.336;3.536;2022-07-23T04:22:09;45.67;;;28.35;;
60006;SDS011;45863;50.336;3.536;2022-07-23T04:24:34;43.80;;;27.95;;
60006;SDS011;45863;50.336;3.536;2022-07-23T04:27:00;39.15;;;28.13;;
60006;SDS011;45863;50.336;3.536;2022-07-23T04:29:25;36.88;;;26.58;;
60006;SDS011;45863;50.336;3.536;2022-07-23T04:31:50;37.53;;;27.20;;
60006;SDS011;45863;50.336;3.536;2022-07-23T04:34:16;50.83;;;30.27;;
60006;SDS011;45863;50.336;3.536;2022-07-23T04:36:41;40.03;;;28.13;;
60006;SDS011;45863;50.336;3.536;2022-07-23T04:39:06;41.70;;;28.57;;
60006;SDS011;45863;50.336;3.536;2022-07-23T04:41:31;42.25;;;28.73;;
60006;SDS011;45863;50.336;3.536;2022-07-23T04:43:57;42.08;;;26.77;;
60006;SDS011;45863;50.336;3.536;2022-07-23T04:46:22;38.23;;;26.40;;
60006;SDS011;45863;50.336;3.536;2022-07-23T04:48:47;39.00;;;25.40;;
60006;SDS011;45863;50.336;3.536;2022-07-23T04:51:12;37.90;;;25.67;;
60006;SDS011;45863;50.336;3.536;2022-07-23T04:53:38;46.03;;;27.42;;
60006;SDS011;45863;50.336;3.536;2022-07-23T04:56:03;45.10;;;28.05;;
60006;SDS011;45863;50.336;3.536;2022-07-23T04:58:28;44.00;;;29.17;;
60006;SDS011;45863;50.336;3.536;2022-07-23T05:00:53;39.60;;;29.38;;
60006;SDS011;45863;50.336;3.536;2022-07-23T05:03:19;39.47;;;28.92;;
60006;SDS011;45863;50.336;3.536;2022-07-23T05:05:44;37.53;;;26.80;;
60006;SDS011;45863;50.336;3.536;2022-07-23T05:08:09;38.45;;;25.98;;
60006;SDS011;45863;50.336;3.536;2022-07-23T05:10:34;41.10;;;26.65;;
60006;SDS011;45863;50.336;3.536;2022-07-23T05:13:00;37.50;;;25.17;;
60006;SDS011;45863;50.336;3.536;2022-07-23T05:15:25;44.63;;;27.13;;
60006;SDS011;45863;50.336;3.536;2022-07-23T05:17:50;44.60;;;26.02;;
60006;SDS011;45863;50.336;3.536;2022-07-23T05:20:16;41.95;;;27.33;;
60006;SDS011;45863;50.336;3.536;2022-07-23T05:22:41;45.13;;;26.83;;
60006;SDS011;45863;50.336;3.536;2022-07-23T05:25:06;41.10;;;26.50;;
60006;SDS011;45863;50.336;3.536;2022-07-23T05:27:32;39.97;;;26.50;;
60006;SDS011;45863;50.336;3.536;2022-07-23T05:29:57;41.17;;;26.85;;
60006;SDS011;45863;50.336;3.536;2022-07-23T05:32:22;44.58;;;28.15;;
60006;SDS011;45863;50.336;3.536;2022-07-23T05:34:48;41.15;;;28.85;;
60006;SDS011;45863;50.336;3.536;2022-07-23T05:37:13;41.72;;;29.08;;
60006;SDS011;45863;50.336;3.536;2022-07-23T05:39:38;41.50;;;27.85;;
60006;SDS011;45863;50.336;3.536;2022-07-23T05:42:03;40.50;;;27.73;;
60006;SDS011;45863;50.336;3.536;2022-07-23T05:44:29;43.85;;;29.33;;
60006;SDS011;45863;50.336;3.536;2022-07-23T05:46:54;37.63;;;28.07;;
60006;SDS011;45863;50.336;3.536;2022-07-23T05:49:19;40.65;;;27.85;;
60006;SDS011;45863;50.336;3.536;2022-07-23T05:51:44;40.03;;;27.60;;
60006;SDS011;45863;50.336;3.536;2022-07-23T05:54:10;40.35;;;25.73;;
60006;SDS011;45863;50.336;3.536;2022-07-23T05:56:35;40.60;;;27.75;;
60006;SDS011;45863;50.336;3.536;2022-07-23T05:59:00;36.58;;;26.13;;
60006;SDS011;45863;50.336;3.536;2022-07-23T06:01:25;36.40;;;26.13;;
60006;SDS011;45863;50.336;3.536;2022-07-23T06:03:51;38.60;;;27.45;;
60006;SDS011;45863;50.336;3.536;2022-07-23T06:06:16;37.50;;;27.08;;
60006;SDS011;45863;50.336;3.536;2022-07-23T06:08:41;38.87;;;26.00;;
60006;SDS011;45863;50.336;3.536;2022-07-23T06:11:06;38.07;;;26.27;;
60006;SDS011;45863;50.336;3.536;2022-07-23T06:13:32;39.38;;;26.08;;
60006;SDS011;45863;50.336;3.536;2022-07-23T06:15:57;35.23;;;26.53;;
60006;SDS011;45863;50.336;3.536;2022-07-23T06:18:22;39.63;;;26.63;;
60006;SDS011;45863;50.336;3.536;2022-07-23T06:20:47;33.67;;;25.90;;
60006;SDS011;45863;50.336;3.536;2022-07-23T06:23:12;40.90;;;26.37;;
60006;SDS011;45863;50.336;3.536;2022-07-23T06:25:38;33.43;;;25.47;;
60006;SDS011;45863;50.336;3.536;2022-07-23T06:28:03;31.73;;;25.45;;
60006;SDS011;45863;50.336;3.536;2022-07-23T06:30:29;34.78;;;25.70;;
60006;SDS011;45863;50.336;3.536;2022-07-23T06:32:54;34.22;;;25.48;;
60006;SDS011;45863;50.336;3.536;2022-07-23T06:35:19;34.53;;;25.48;;
60006;SDS011;45863;50.336;3.536;2022-07-23T06:37:48;36.40;;;26.10;;
60006;SDS011;45863;50.336;3.536;2022-07-23T06:40:13;37.90;;;24.60;;
60006;SDS011;45863;50.336;3.536;2022-07-23T06:42:38;30.27;;;24.48;;
60006;SDS011;45863;50.336;3.536;2022-07-23T06:45:07;37.55;;;25.90;;
60006;SDS011;45863;50.336;3.536;2022-07-23T06:47:32;35.92;;;26.33;;
60006;SDS011;45863;50.336;3.536;2022-07-23T06:49:57;35.53;;;25.33;;
60006;SDS011;45863;50.336;3.536;2022-07-23T06:52:23;33.37;;;23.97;;
60006;SDS011;45863;50.336;3.536;2022-07-23T06:54:48;30.90;;;23.38;;
60006;SDS011;45863;50.336;3.536;2022-07-23T06:57:14;34.78;;;25.40;;
60006;SDS011;45863;50.336;3.536;2022-07-23T06:59:39;36.53;;;24.65;;
60006;SDS011;45863;50.336;3.536;2022-07-23T07:02:06;38.53;;;26.05;;
60006;SDS011;45863;50.336;3.536;2022-07-23T07:04:31;37.20;;;25.90;;
60006;SDS011;45863;50.336;3.536;2022-07-23T07:06:57;31.17;;;24.30;;
60006;SDS011;45863;50.336;3.536;2022-07-23T07:09:22;34.65;;;23.38;;
60006;SDS011;45863;50.336;3.536;2022-07-23T07:11:47;34.63;;;24.60;;
60006;SDS011;45863;50.336;3.536;2022-07-23T07:14:13;34.30;;;25.13;;
60006;SDS011;45863;50.336;3.536;2022-07-23T07:16:38;38.20;;;25.23;;
60006;SDS011;45863;50.336;3.536;2022-07-23T07:19:03;34.63;;;24.97;;
60006;SDS011;45863;50.336;3.536;2022-07-23T07:21:28;33.90;;;25.47;;
60006;SDS011;45863;50.336;3.536;2022-07-23T07:23:53;30.52;;;23.25;;
60006;SDS011;45863;50.336;3.536;2022-07-23T07:26:19;31.57;;;22.87;;
60006;SDS011;45863;50.336;3.536;2022-07-23T07:28:44;29.47;;;22.00;;
60006;SDS011;45863;50.336;3.536;2022-07-23T07:31:09;36.22;;;23.42;;
60006;SDS011;45863;50.336;3.536;2022-07-23T07:33:34;33.03;;;23.00;;
60006;SDS011;45863;50.336;3.536;2022-07-23T07:36:00;34.80;;;23.05;;
60006;SDS011;45863;50.336;3.536;2022-07-23T07:38:25;32.50;;;23.23;;
60006;SDS011;45863;50.336;3.536;2022-07-23T07:40:51;32.60;;;23.08;;
60006;SDS011;45863;50.336;3.536;2022-07-23T07:43:16;27.40;;;21.02;;
60006;SDS011;45863;50.336;3.536;2022-07-23T07:45:41;31.52;;;21.98;;
60006;SDS011;45863;50.336;3.536;2022-07-23T07:48:06;28.40;;;20.13;;
60006;SDS011;45863;50.336;3.536;2022-07-23T07:50:32;30.35;;;20.60;;
60006;SDS011;45863;50.336;3.536;2022-07-23T07:52:57;28.20;;;19.98;;
60006;SDS011;45863;50.336;3.536;2022-07-23T07:55:22;32.65;;;19.42;;
60006;SDS011;45863;50.336;3.536;2022-07-23T07:57:48;32.60;;;19.83;;
60006;SDS011;45863;50.336;3.536;2022-07-23T08:00:13;27.33;;;19.23;;
60006;SDS011;45863;50.336;3.536;2022-07-23T08:05:06;25.35;;;19.30;;
60006;SDS011;45863;50.336;3.536;2022-07-23T08:07:32;24.52;;;19.48;;
60006;SDS011;45863;50.336;3.536;2022-07-23T08:09:57;29.15;;;18.67;;
60006;SDS011;45863;50.336;3.536;2022-07-23T08:12:22;32.53;;;18.53;;
60006;SDS011;45863;50.336;3.536;2022-07-23T08:14:47;26.83;;;18.47;;
60006;SDS011;45863;50.336;3.536;2022-07-23T08:17:12;27.73;;;19.63;;
60006;SDS011;45863;50.336;3.536;2022-07-23T08:19:38;26.20;;;18.43;;
60006;SDS011;45863;50.336;3.536;2022-07-23T08:22:03;28.70;;;18.47;;
60006;SDS011;45863;50.336;3.536;2022-07-23T08:24:28;26.57;;;18.03;;
60006;SDS011;45863;50.336;3.536;2022-07-23T08:26:53;25.97;;;19.07;;
60006;SDS011;45863;50.336;3.536;2022-07-23T08:29:19;22.88;;;18.10;;
60006;SDS011;45863;50.336;3.536;2022-07-23T08:31:44;26.97;;;17.83;;
60006;SDS011;45863;50.336;3.536;2022-07-23T08:34:10;29.15;;;18.48;;
60006;SDS011;45863;50.336;3.536;2022-07-23T08:36:36;27.35;;;19.20;;
60006;SDS011;45863;50.336;3.536;2022-07-23T08:39:01;31.05;;;18.75;;
60006;SDS011;45863;50.336;3.536;2022-07-23T08:41:28;23.88;;;18.70;;
60006;SDS011;45863;50.336;3.536;2022-07-23T08:43:53;23.00;;;18.23;;
60006;SDS011;45863;50.336;3.536;2022-07-23T08:46:19;28.73;;;18.80;;
60006;SDS011;45863;50.336;3.536;2022-07-23T08:48:44;22.85;;;17.50;;
60006;SDS011;45863;50.336;3.536;2022-07-23T08:51:12;25.58;;;15.80;;
60006;SDS011;45863;50.336;3.536;2022-07-23T08:53:37;23.63;;;17.60;;
60006;SDS011;45863;50.336;3.536;2022-07-23T08:56:04;26.50;;;17.02;;
60006;SDS011;45863;50.336;3.536;2022-07-23T08:58:30;24.00;;;16.77;;
60006;SDS011;45863;50.336;3.536;2022-07-23T09:00:55;24.55;;;17.65;;
60006;SDS011;45863;50.336;3.536;2022-07-23T09:03:31;21.88;;;16.77;;
60006;SDS011;45863;50.336;3.536;2022-07-23T09:05:56;23.50;;;16.40;;
60006;SDS011;45863;50.336;3.536;2022-07-23T09:08:23;25.63;;;15.75;;
60006;SDS011;45863;50.336;3.536;2022-07-23T09:10:52;22.17;;;15.93;;
60006;SDS011;45863;50.336;3.536;2022-07-23T09:13:28;17.80;;;15.15;;
60006;SDS011;45863;50.336;3.536;2022-07-23T09:15:55;19.23;;;15.07;;
60006;SDS011;45863;50.336;3.536;2022-07-23T09:18:34;16.52;;;13.50;;
60006;SDS011;45863;50.336;3.536;2022-07-23T09:21:10;19.33;;;11.77;;
60006;SDS011;45863;50.336;3.536;2022-07-23T09:28:50;16.80;;;11.82;;
60006;SDS011;45863;50.336;3.536;2022-07-23T09:31:16;17.58;;;12.25;;
60006;SDS011;45863;50.336;3.536;2022-07-23T09:33:41;16.67;;;11.95;;
60006;SDS011;45863;50.336;3.536;2022-07-23T09:36:07;16.95;;;11.50;;
60006;SDS011;45863;50.336;3.536;2022-07-23T09:38:34;20.20;;;12.80;;
60006;SDS011;45863;50.336;3.536;2022-07-23T09:41:06;19.47;;;12.90;;
60006;SDS011;45863;50.336;3.536;2022-07-23T09:43:31;18.85;;;11.75;;
60006;SDS011;45863;50.336;3.536;2022-07-23T09:46:39;18.70;;;11.43;;
60006;SDS011;45863;50.336;3.536;2022-07-23T09:48:46;17.35;;;11.20;;
60006;SDS011;45863;50.336;3.536;2022-07-23T09:51:11;15.88;;;10.63;;
60006;SDS011;45863;50.336;3.536;2022-07-23T09:53:37;16.77;;;11.68;;
60006;SDS011;45863;50.336;3.536;2022-07-23T09:56:03;12.17;;;10.57;;
60006;SDS011;45863;50.336;3.536;2022-07-23T09:58:28;16.23;;;10.10;;
60006;SDS011;45863;50.336;3.536;2022-07-23T10:00:55;12.55;;;9.23;;
60006;SDS011;45863;50.336;3.536;2022-07-23T10:03:21;13.32;;;8.13;;
60006;SDS011;45863;50.336;3.536;2022-07-23T10:05:48;12.52;;;9.25;;
60006;SDS011;45863;50.336;3.536;2022-07-23T10:08:13;12.95;;;8.18;;
60006;SDS011;45863;50.336;3.536;2022-07-23T10:10:41;11.23;;;7.40;;
60006;SDS011;45863;50.336;3.536;2022-07-23T10:13:07;11.48;;;8.27;;
60006;SDS011;45863;50.336;3.536;2022-07-23T10:15:51;11.90;;;8.85;;
60006;SDS011;45863;50.336;3.536;2022-07-23T10:18:16;12.83;;;8.00;;
60006;SDS011;45863;50.336;3.536;2022-07-23T10:20:42;13.40;;;9.77;;
60006;SDS011;45863;50.336;3.536;2022-07-23T10:23:14;11.65;;;8.63;;
60006;SDS011;45863;50.336;3.536;2022-07-23T10:26:01;13.48;;;7.60;;
60006;SDS011;45863;50.336;3.536;2022-07-23T10:34:00;13.45;;;8.23;;
60006;SDS011;45863;50.336;3.536;2022-07-23T10:36:32;10.55;;;7.45;;
60006;SDS011;45863;50.336;3.536;2022-07-23T10:41:39;16.15;;;7.57;;
60006;SDS011;45863;50.336;3.536;2022-07-23T10:44:12;11.75;;;7.68;;
60006;SDS011;45863;50.336;3.536;2022-07-23T10:49:23;12.77;;;8.05;;
60006;SDS011;45863;50.336;3.536;2022-07-23T10:54:32;10.80;;;7.22;;
60006;SDS011;45863;50.336;3.536;2022-07-23T10:59:24;12.15;;;8.65;;
60006;SDS011;45863;50.336;3.536;2022-07-23T11:01:50;11.30;;;8.23;;
60006;SDS011;45863;50.336;3.536;2022-07-23T11:04:15;11.93;;;8.85;;
60006;SDS011;45863;50.336;3.536;2022-07-23T11:17:57;15.02;;;9.00;;
60006;SDS011;45863;50.336;3.536;2022-07-23T11:20:24;18.52;;;8.85;;
60006;SDS011;45863;50.336;3.536;2022-07-23T11:22:56;12.77;;;9.27;;
60006;SDS011;45863;50.336;3.536;2022-07-23T11:27:47;13.73;;;8.30;;
60006;SDS011;45863;50.336;3.536;2022-07-23T11:30:58;13.00;;;8.95;;
60006;SDS011;45863;50.336;3.536;2022-07-23T11:35:32;14.10;;;8.32;;
60006;SDS011;45863;50.336;3.536;2022-07-23T11:38:05;14.20;;;9.32;;
60006;SDS011;45863;50.336;3.536;2022-07-23T11:40:31;13.95;;;8.88;;
60006;SDS011;45863;50.336;3.536;2022-07-23T11:43:03;10.75;;;7.93;;
60006;SDS011;45863;50.336;3.536;2022-07-23T11:45:39;13.80;;;8.52;;
60006;SDS011;45863;50.336;3.536;2022-07-23T11:48:05;13.93;;;8.80;;
60006;SDS011;45863;50.336;3.536;2022-07-23T11:50:31;12.82;;;7.90;;
60006;SDS011;45863;50.336;3.536;2022-07-23T11:52:56;11.40;;;7.17;;
60006;SDS011;45863;50.336;3.536;2022-07-23T11:55:21;12.30;;;7.13;;
60006;SDS011;45863;50.336;3.536;2022-07-23T11:57:47;9.98;;;7.82;;
60006;SDS011;45863;50.336;3.536;2022-07-23T12:00:20;10.50;;;8.25;;
60006;SDS011;45863;50.336;3.536;2022-07-23T12:02:46;12.85;;;8.20;;
60006;SDS011;45863;50.336;3.536;2022-07-23T12:05:16;9.68;;;7.20;;
60006;SDS011;45863;50.336;3.536;2022-07-23T12:07:42;13.27;;;7.97;;
60006;SDS011;45863;50.336;3.536;2022-07-23T12:12:41;10.70;;;7.75;;
60006;SDS011;45863;50.336;3.536;2022-07-23T12:15:07;11.27;;;7.28;;
60006;SDS011;45863;50.336;3.536;2022-07-23T12:17:34;12.98;;;7.47;;
60006;SDS011;45863;50.336;3.536;2022-07-23T12:20:00;10.13;;;6.90;;
60006;SDS011;45863;50.336;3.536;2022-07-23T12:22:32;10.80;;;5.60;;
60006;SDS011;45863;50.336;3.536;2022-07-23T12:24:59;8.90;;;5.05;;
60006;SDS011;45863;50.336;3.536;2022-07-23T12:27:25;11.20;;;6.50;;
60006;SDS011;45863;50.336;3.536;2022-07-23T12:29:50;11.88;;;6.38;;
60006;SDS011;45863;50.336;3.536;2022-07-23T12:32:19;13.45;;;7.47;;
60006;SDS011;45863;50.336;3.536;2022-07-23T12:34:45;14.60;;;7.63;;
60006;SDS011;45863;50.336;3.536;2022-07-23T12:37:30;9.25;;;5.93;;
60006;SDS011;45863;50.336;3.536;2022-07-23T12:39:56;9.60;;;5.90;;
60006;SDS011;45863;50.336;3.536;2022-07-23T12:42:21;10.45;;;5.88;;
60006;SDS011;45863;50.336;3.536;2022-07-23T12:45:03;8.13;;;4.90;;
60006;SDS011;45863;50.336;3.536;2022-07-23T12:47:28;10.85;;;4.90;;
60006;SDS011;45863;50.336;3.536;2022-07-23T12:49:53;8.20;;;4.60;;
60006;SDS011;45863;50.336;3.536;2022-07-23T12:52:18;8.10;;;5.50;;
60006;SDS011;45863;50.336;3.536;2022-07-23T12:54:44;8.50;;;4.90;;
60006;SDS011;45863;50.336;3.536;2022-07-23T12:57:09;10.27;;;5.60;;
60006;SDS011;45863;50.336;3.536;2022-07-23T12:59:34;10.00;;;5.23;;
60006;SDS011;45863;50.336;3.536;2022-07-23T13:01:59;10.50;;;5.90;;
60006;SDS011;45863;50.336;3.536;2022-07-23T13:04:25;7.37;;;5.20;;
60006;SDS011;45863;50.336;3.536;2022-07-23T13:06:51;8.80;;;5.40;;
60006;SDS011;45863;50.336;3.536;2022-07-23T13:09:17;9.30;;;5.38;;
60006;SDS011;45863;50.336;3.536;2022-07-23T13:11:44;9.73;;;5.60;;
60006;SDS011;45863;50.336;3.536;2022-07-23T13:14:10;9.60;;;6.10;;
60006;SDS011;45863;50.336;3.536;2022-07-23T13:16:35;9.63;;;5.18;;
60006;SDS011;45863;50.336;3.536;2022-07-23T13:19:00;12.52;;;5.35;;
60006;SDS011;45863;50.336;3.536;2022-07-23T13:21:26;6.83;;;4.50;;
60006;SDS011;45863;50.336;3.536;2022-07-23T13:23:52;6.60;;;4.38;;
60006;SDS011;45863;50.336;3.536;2022-07-23T13:26:17;8.52;;;5.15;;
60006;SDS011;45863;50.336;3.536;2022-07-23T13:28:42;7.57;;;4.43;;
60006;SDS011;45863;50.336;3.536;2022-07-23T13:31:08;9.80;;;5.35;;
60006;SDS011;45863;50.336;3.536;2022-07-23T13:33:34;7.95;;;4.40;;
60006;SDS011;45863;50.336;3.536;2022-07-23T13:35:59;7.15;;;4.13;;
60006;SDS011;45863;50.336;3.536;2022-07-23T13:38:24;8.37;;;4.67;;
60006;SDS011;45863;50.336;3.536;2022-07-23T13:40:50;9.73;;;5.10;;
60006;SDS011;45863;50.336;3.536;2022-07-23T13:43:17;8.55;;;4.97;;
60006;SDS011;45863;50.336;3.536;2022-07-23T13:45:42;8.82;;;4.93;;
60006;SDS011;45863;50.336;3.536;2022-07-23T13:48:08;8.18;;;4.68;;
60006;SDS011;45863;50.336;3.536;2022-07-23T13:50:34;6.68;;;4.50;;
60006;SDS011;45863;50.336;3.536;2022-07-23T13:53:07;5.63;;;3.88;;
60006;SDS011;45863;50.336;3.536;2022-07-23T13:55:34;7.68;;;4.57;;
60006;SDS011;45863;50.336;3.536;2022-07-23T13:57:59;6.47;;;4.15;;
60006;SDS011;45863;50.336;3.536;2022-07-23T14:00:25;8.63;;;4.17;;
60006;SDS011;45863;50.336;3.536;2022-07-23T14:02:50;7.47;;;4.50;;
60006;SDS011;45863;50.336;3.536;2022-07-23T14:05:16;8.43;;;4.40;;
60006;SDS011;45863;50.336;3.536;2022-07-23T14:07:41;11.82;;;4.60;;
60006;SDS011;45863;50.336;3.536;2022-07-23T14:10:09;7.40;;;4.85;;
60006;SDS011;45863;50.336;3.536;2022-07-23T14:12:34;8.30;;;4.72;;
60006;SDS011;45863;50.336;3.536;2022-07-23T14:15:00;8.13;;;4.57;;
60006;SDS011;45863;50.336;3.536;2022-07-23T14:17:25;8.63;;;4.87;;
60006;SDS011;45863;50.336;3.536;2022-07-23T14:19:50;6.97;;;4.47;;
60006;SDS011;45863;50.336;3.536;2022-07-23T14:22:15;7.50;;;4.17;;
60006;SDS011;45863;50.336;3.536;2022-07-23T14:24:41;7.60;;;4.63;;
60006;SDS011;45863;50.336;3.536;2022-07-23T14:27:06;7.60;;;4.47;;
60006;SDS011;45863;50.336;3.536;2022-07-23T14:29:32;11.90;;;4.47;;
60006;SDS011;45863;50.336;3.536;2022-07-23T14:31:57;6.82;;;5.07;;
60006;SDS011;45863;50.336;3.536;2022-07-23T14:34:23;9.25;;;5.30;;
60006;SDS011;45863;50.336;3.536;2022-07-23T14:36:48;7.90;;;4.75;;
60006;SDS011;45863;50.336;3.536;2022-07-23T14:39:13;10.82;;;5.15;;
60006;SDS011;45863;50.336;3.536;2022-07-23T14:41:39;11.10;;;5.60;;
60006;SDS011;45863;50.336;3.536;2022-07-23T14:44:04;9.55;;;5.50;;
60006;SDS011;45863;50.336;3.536;2022-07-23T14:46:29;8.60;;;5.40;;
60006;SDS011;45863;50.336;3.536;2022-07-23T14:48:54;8.07;;;4.43;;
60006;SDS011;45863;50.336;3.536;2022-07-23T14:51:20;12.82;;;5.13;;
60006;SDS011;45863;50.336;3.536;2022-07-23T14:53:45;9.73;;;5.43;;
60006;SDS011;45863;50.336;3.536;2022-07-23T14:56:10;7.77;;;4.60;;
60006;SDS011;45863;50.336;3.536;2022-07-23T14:58:36;8.63;;;4.40;;
60006;SDS011;45863;50.336;3.536;2022-07-23T15:01:01;7.20;;;4.53;;
60006;SDS011;45863;50.336;3.536;2022-07-23T15:03:26;9.47;;;5.00;;